sensor_id;sensor_type;location;lat;lon;timestamp;pressure;altitude;pressure_sealevel;temperature;humidity
4085;BME280;2057;50.858;6.572;2023-07-31T00:02:19;100016.53;;;16.67;100.00
4085;BME280;2057;50.858;6.572;2023-07-31T00:04:44;100019.06;;;16.65;100.00
4085;BME280;2057;50.858;6.572;2023-07-31T00:07:10;100018.06;;;16.55;100.00
4085;BME280;2057;50.858;6.572;2023-07-31T00:09:35;100019.03;;;16.63;100.00
4085;BME280;2057;50.858;6.572;2023-07-31T00:12:00;100018.13;;;16.58;100.00
4085;BME280;2057;50.858;6.572;2023-07-31T00:14:26;100021.59;;;16.63;100.00
4085;BME280;2057;50.858;6.572;2023-07-31T00:16:53;100013.41;;;16.85;100.00
4085;BME280;2057;50.858;6.572;2023-07-31T00:19:19;100014.88;;;16.69;100.00
4085;BME280;2057;50.858;6.572;2023-07-31T00:21:44;100026.94;;;16.76;100.00
4085;BME280;2057;50.858;6.572;2023-07-31T00:24:10;100014.97;;;16.76;100.00
4085;BME280;2057;50.858;6.572;2023-07-31T00:26:35;100021.84;;;16.77;100.00
4085;BME280;2057;50.858;6.572;2023-07-31T00:29:00;100025.31;;;16.81;100.00
4085;BME280;2057;50.858;6.572;2023-07-31T00:31:26;100026.13;;;16.77;100.00
4085;BME280;2057;50.858;6.572;2023-07-31T00:33:51;100031.28;;;16.80;100.00
4085;BME280;2057;50.858;6.572;2023-07-31T00:36:17;100023.63;;;16.82;100.00
4085;BME280;2057;50.858;6.572;2023-07-31T00:38:43;100023.59;;;16.80;100.00
4085;BME280;2057;50.858;6.572;2023-07-31T00:41:09;100024.41;;;16.79;100.00
4085;BME280;2057;50.858;6.572;2023-07-31T00:43:34;100019.28;;;16.79;100.00
4085;BME280;2057;50.858;6.572;2023-07-31T00:45:59;100029.59;;;16.82;100.00
4085;BME280;2057;50.858;6.572;2023-07-31T00:48:25;100025.16;;;16.72;100.00
4085;BME280;2057;50.858;6.572;2023-07-31T00:50:51;100016.72;;;16.79;100.00
4085;BME280;2057;50.858;6.572;2023-07-31T00:53:18;100007.22;;;16.73;100.00
4085;BME280;2057;50.858;6.572;2023-07-31T00:55:44;100015.81;;;16.74;100.00
4085;BME280;2057;50.858;6.572;2023-07-31T00:58:09;100002.94;;;16.71;100.00
4085;BME280;2057;50.858;6.572;2023-07-31T01:00:35;99996.13;;;16.73;100.00
4085;BME280;2057;50.858;6.572;2023-07-31T01:03:00;99998.78;;;16.79;100.00
4085;BME280;2057;50.858;6.572;2023-07-31T01:11:02;99994.50;;;16.78;100.00
4085;BME280;2057;50.858;6.572;2023-07-31T01:13:31;99994.53;;;16.80;100.00
4085;BME280;2057;50.858;6.572;2023-07-31T01:15:56;99993.78;;;16.85;100.00
4085;BME280;2057;50.858;6.572;2023-07-31T01:18:22;99991.91;;;16.78;100.00
4085;BME280;2057;50.858;6.572;2023-07-31T01:20:54;99988.34;;;16.67;100.00
4085;BME280;2057;50.858;6.572;2023-07-31T01:26:21;99979.94;;;16.75;100.00
4085;BME280;2057;50.858;6.572;2023-07-31T01:28:59;99974.72;;;16.71;100.00
4085;BME280;2057;50.858;6.572;2023-07-31T01:31:29;99980.81;;;16.76;100.00
4085;BME280;2057;50.858;6.572;2023-07-31T01:33:56;99977.41;;;16.77;100.00
4085;BME280;2057;50.858;6.572;2023-07-31T01:36:23;99983.53;;;16.87;100.00
4085;BME280;2057;50.858;6.572;2023-07-31T01:38:49;99980.16;;;16.91;100.00
4085;BME280;2057;50.858;6.572;2023-07-31T01:41:17;99969.66;;;16.74;100.00
4085;BME280;2057;50.858;6.572;2023-07-31T01:43:42;99973.06;;;16.74;100.00
4085;BME280;2057;50.858;6.572;2023-07-31T01:46:08;99969.59;;;16.69;100.00
4085;BME280;2057;50.858;6.572;2023-07-31T01:48:33;99967.91;;;16.71;100.00
4085;BME280;2057;50.858;6.572;2023-07-31T01:51:01;99968.69;;;16.66;100.00
4085;BME280;2057;50.858;6.572;2023-07-31T01:53:27;99973.06;;;16.74;100.00
4085;BME280;2057;50.858;6.572;2023-07-31T01:55:53;99965.38;;;16.73;100.00
4085;BME280;2057;50.858;6.572;2023-07-31T01:58:18;99954.19;;;16.69;100.00
4085;BME280;2057;50.858;6.572;2023-07-31T02:00:43;99956.06;;;16.80;100.00
4085;BME280;2057;50.858;6.572;2023-07-31T02:03:09;99959.47;;;16.77;100.00
4085;BME280;2057;50.858;6.572;2023-07-31T02:05:34;99963.78;;;16.81;100.00
4085;BME280;2057;50.858;6.572;2023-07-31T02:07:59;99953.56;;;16.84;100.00
4085;BME280;2057;50.858;6.572;2023-07-31T02:10:25;99951.94;;;16.91;100.00
4085;BME280;2057;50.858;6.572;2023-07-31T02:12:50;99951.19;;;16.95;100.00
4085;BME280;2057;50.858;6.572;2023-07-31T02:15:15;99946.84;;;16.92;100.00
4085;BME280;2057;50.858;6.572;2023-07-31T02:17:41;99945.84;;;16.83;100.00
4085;BME280;2057;50.858;6.572;2023-07-31T02:20:07;99944.34;;;16.96;100.00
4085;BME280;2057;50.858;6.572;2023-07-31T02:22:32;99945.25;;;16.98;100.00
4085;BME280;2057;50.858;6.572;2023-07-31T02:24:57;99940.94;;;16.93;100.00
4085;BME280;2057;50.858;6.572;2023-07-31T02:27:23;99936.72;;;17.00;100.00
4085;BME280;2057;50.858;6.572;2023-07-31T02:29:52;99933.38;;;17.06;100.00
4085;BME280;2057;50.858;6.572;2023-07-31T02:32:17;99936.72;;;17.00;100.00
4085;BME280;2057;50.858;6.572;2023-07-31T02:34:42;99937.59;;;17.01;100.00
4085;BME280;2057;50.858;6.572;2023-07-31T02:37:08;99935.94;;;17.06;100.00
4085;BME280;2057;50.858;6.572;2023-07-31T02:39:33;99928.13;;;16.95;100.00
4085;BME280;2057;50.858;6.572;2023-07-31T02:41:59;99935.88;;;17.00;100.00
4085;BME280;2057;50.858;6.572;2023-07-31T02:44:25;99934.16;;;16.99;100.00
4085;BME280;2057;50.858;6.572;2023-07-31T02:46:51;99932.41;;;16.98;100.00
4085;BME280;2057;50.858;6.572;2023-07-31T02:49:16;99935.03;;;17.01;100.00
4085;BME280;2057;50.858;6.572;2023-07-31T02:51:41;99926.50;;;17.02;100.00
4085;BME280;2057;50.858;6.572;2023-07-31T02:54:07;99926.53;;;17.05;100.00
4085;BME280;2057;50.858;6.572;2023-07-31T02:56:32;99919.66;;;17.01;100.00
4085;BME280;2057;50.858;6.572;2023-07-31T02:58:57;99915.44;;;17.06;100.00
4085;BME280;2057;50.858;6.572;2023-07-31T03:01:23;99917.09;;;17.01;100.00
4085;BME280;2057;50.858;6.572;2023-07-31T03:03:48;99919.72;;;17.07;100.00
4085;BME280;2057;50.858;6.572;2023-07-31T03:06:13;99917.16;;;17.05;100.00
4085;BME280;2057;50.858;6.572;2023-07-31T03:08:39;99915.44;;;17.06;100.00
4085;BME280;2057;50.858;6.572;2023-07-31T03:11:04;99912.03;;;17.07;100.00
4085;BME280;2057;50.858;6.572;2023-07-31T03:13:29;99907.78;;;17.09;100.00
4085;BME280;2057;50.858;6.572;2023-07-31T03:15:55;99915.47;;;17.07;100.00
4085;BME280;2057;50.858;6.572;2023-07-31T03:18:20;99903.50;;;17.08;100.00
4085;BME280;2057;50.858;6.572;2023-07-31T03:20:45;99902.59;;;17.04;100.00
4085;BME280;2057;50.858;6.572;2023-07-31T03:23:11;99915.38;;;17.01;100.00
4085;BME280;2057;50.858;6.572;2023-07-31T03:25:36;99911.97;;;17.04;100.00
4085;BME280;2057;50.858;6.572;2023-07-31T03:28:02;99903.50;;;17.08;100.00
4085;BME280;2057;50.858;6.572;2023-07-31T03:30:30;99906.81;;;17.01;100.00
4085;BME280;2057;50.858;6.572;2023-07-31T03:32:55;99906.81;;;17.01;100.00
4085;BME280;2057;50.858;6.572;2023-07-31T03:35:20;99902.66;;;17.11;100.00
4085;BME280;2057;50.858;6.572;2023-07-31T03:37:46;99895.72;;;17.03;100.00
4085;BME280;2057;50.858;6.572;2023-07-31T03:40:12;99905.94;;;16.99;100.00
4085;BME280;2057;50.858;6.572;2023-07-31T03:42:37;99894.06;;;17.07;100.00
4085;BME280;2057;50.858;6.572;2023-07-31T03:45:03;99884.59;;;17.01;100.00
4085;BME280;2057;50.858;6.572;2023-07-31T03:47:28;99881.84;;;16.90;100.00
4085;BME280;2057;50.858;6.572;2023-07-31T03:49:54;99875.16;;;17.00;100.00
4085;BME280;2057;50.858;6.572;2023-07-31T03:52:19;99859.00;;;17.06;100.00
4085;BME280;2057;50.858;6.572;2023-07-31T03:54:44;99864.91;;;17.00;100.00
4085;BME280;2057;50.858;6.572;2023-07-31T03:57:10;99864.13;;;17.06;100.00
4085;BME280;2057;50.858;6.572;2023-07-31T03:59:36;99871.81;;;17.06;100.00
4085;BME280;2057;50.858;6.572;2023-07-31T04:02:04;99870.03;;;16.99;100.00
4085;BME280;2057;50.858;6.572;2023-07-31T04:04:30;99878.63;;;17.04;100.00
4085;BME280;2057;50.858;6.572;2023-07-31T04:06:55;99864.06;;;17.01;100.00
4085;BME280;2057;50.858;6.572;2023-07-31T04:09:20;99870.19;;;17.11;100.00
4085;BME280;2057;50.858;6.572;2023-07-31T04:11:46;99866.75;;;17.07;100.00
4085;BME280;2057;50.858;6.572;2023-07-31T04:14:11;99858.22;;;17.12;100.00
4085;BME280;2057;50.858;6.572;2023-07-31T04:16:36;99850.50;;;17.10;100.00
4085;BME280;2057;50.858;6.572;2023-07-31T04:19:02;99853.97;;;17.15;100.00
4085;BME280;2057;50.858;6.572;2023-07-31T04:21:28;99853.09;;;17.13;100.00
4085;BME280;2057;50.858;6.572;2023-07-31T04:23:53;99848.78;;;17.07;100.00
4085;BME280;2057;50.858;6.572;2023-07-31T04:26:21;99849.69;;;17.13;100.00
4085;BME280;2057;50.858;6.572;2023-07-31T04:28:49;99850.56;;;17.16;100.00
4085;BME280;2057;50.858;6.572;2023-07-31T04:31:14;99849.75;;;17.17;100.00
4085;BME280;2057;50.858;6.572;2023-07-31T04:33:39;99851.41;;;17.12;100.00
4085;BME280;2057;50.858;6.572;2023-07-31T04:36:05;99848.00;;;17.16;100.00
4085;BME280;2057;50.858;6.572;2023-07-31T04:38:30;99848.97;;;17.24;100.00
4085;BME280;2057;50.858;6.572;2023-07-31T04:40:56;99841.22;;;17.20;100.00
4085;BME280;2057;50.858;6.572;2023-07-31T04:43:21;99850.63;;;17.21;100.00
4085;BME280;2057;50.858;6.572;2023-07-31T04:45:47;99846.44;;;17.28;100.00
4085;BME280;2057;50.858;6.572;2023-07-31T04:48:15;99836.97;;;17.23;100.00
4085;BME280;2057;50.858;6.572;2023-07-31T04:50:41;99837.81;;;17.22;100.00
4085;BME280;2057;50.858;6.572;2023-07-31T04:53:06;99840.41;;;17.24;100.00
4085;BME280;2057;50.858;6.572;2023-07-31T04:55:31;99842.25;;;17.36;100.00
4085;BME280;2057;50.858;6.572;2023-07-31T04:57:58;99836.06;;;17.20;100.00
4085;BME280;2057;50.858;6.572;2023-07-31T05:00:24;99841.19;;;17.18;100.00
4085;BME280;2057;50.858;6.572;2023-07-31T05:02:49;99833.63;;;17.28;100.00
4085;BME280;2057;50.858;6.572;2023-07-31T05:05:15;99837.84;;;17.25;100.00
4085;BME280;2057;50.858;6.572;2023-07-31T05:07:40;99834.47;;;17.30;100.00
4085;BME280;2057;50.858;6.572;2023-07-31T05:10:06;99826.88;;;17.37;100.00
4085;BME280;2057;50.858;6.572;2023-07-31T05:12:31;99830.34;;;17.44;100.00
4085;BME280;2057;50.858;6.572;2023-07-31T05:14:56;99824.28;;;17.36;100.00
4085;BME280;2057;50.858;6.572;2023-07-31T05:17:22;99832.03;;;17.44;100.00
4085;BME280;2057;50.858;6.572;2023-07-31T05:19:47;99819.25;;;17.48;100.00
4085;BME280;2057;50.858;6.572;2023-07-31T05:22:12;99815.81;;;17.45;100.00
4085;BME280;2057;50.858;6.572;2023-07-31T05:24:38;99816.63;;;17.40;100.00
4085;BME280;2057;50.858;6.572;2023-07-31T05:27:03;99804.75;;;17.49;100.00
4085;BME280;2057;50.858;6.572;2023-07-31T05:29:29;99803.94;;;17.54;100.00
4085;BME280;2057;50.858;6.572;2023-07-31T05:31:54;99809.84;;;17.47;100.00
4085;BME280;2057;50.858;6.572;2023-07-31T05:34:19;99797.84;;;17.45;100.00
4085;BME280;2057;50.858;6.572;2023-07-31T05:36:45;99787.63;;;17.48;100.00
4085;BME280;2057;50.858;6.572;2023-07-31T05:39:10;99785.91;;;17.47;100.00
4085;BME280;2057;50.858;6.572;2023-07-31T05:41:36;99784.16;;;17.44;100.00
4085;BME280;2057;50.858;6.572;2023-07-31T05:44:03;99787.63;;;17.46;100.00
4085;BME280;2057;50.858;6.572;2023-07-31T05:46:29;99771.34;;;17.44;100.00
4085;BME280;2057;50.858;6.572;2023-07-31T05:48:56;99773.94;;;17.52;100.00
4085;BME280;2057;50.858;6.572;2023-07-31T05:51:21;99774.00;;;17.55;100.00
4085;BME280;2057;50.858;6.572;2023-07-31T05:53:46;99778.19;;;17.48;100.00
4085;BME280;2057;50.858;6.572;2023-07-31T05:56:12;99773.72;;;17.27;100.00
4085;BME280;2057;50.858;6.572;2023-07-31T05:58:37;99774.56;;;17.24;100.00
4085;BME280;2057;50.858;6.572;2023-07-31T06:01:02;99774.34;;;17.03;100.00
4085;BME280;2057;50.858;6.572;2023-07-31T06:03:28;99781.16;;;16.99;100.00
4085;BME280;2057;50.858;6.572;2023-07-31T06:05:53;99769.91;;;16.92;100.00
4085;BME280;2057;50.858;6.572;2023-07-31T06:08:18;99772.56;;;16.97;100.00
4085;BME280;2057;50.858;6.572;2023-07-31T06:13:19;99763.84;;;16.84;100.00
4085;BME280;2057;50.858;6.572;2023-07-31T06:15:44;99762.19;;;16.88;100.00
4085;BME280;2057;50.858;6.572;2023-07-31T06:18:10;99762.19;;;16.91;100.00
4085;BME280;2057;50.858;6.572;2023-07-31T06:20:35;99752.75;;;16.85;100.00
4085;BME280;2057;50.858;6.572;2023-07-31T06:23:01;99747.63;;;16.85;100.00
4085;BME280;2057;50.858;6.572;2023-07-31T06:25:29;99753.66;;;16.89;100.00
4085;BME280;2057;50.858;6.572;2023-07-31T06:27:54;99750.25;;;16.91;100.00
4085;BME280;2057;50.858;6.572;2023-07-31T06:30:19;99750.38;;;17.01;100.00
4085;BME280;2057;50.858;6.572;2023-07-31T06:32:45;99755.50;;;17.01;100.00
4085;BME280;2057;50.858;6.572;2023-07-31T06:35:10;99752.22;;;17.14;100.00
4085;BME280;2057;50.858;6.572;2023-07-31T06:37:35;99753.16;;;17.19;100.00
4085;BME280;2057;50.858;6.572;2023-07-31T06:40:01;99766.06;;;17.29;100.00
4085;BME280;2057;50.858;6.572;2023-07-31T06:42:26;99760.94;;;17.32;100.00
4085;BME280;2057;50.858;6.572;2023-07-31T06:44:52;99755.00;;;17.36;100.00
4085;BME280;2057;50.858;6.572;2023-07-31T06:47:19;99760.19;;;17.42;100.00
4085;BME280;2057;50.858;6.572;2023-07-31T06:49:45;99757.72;;;17.53;100.00
4085;BME280;2057;50.858;6.572;2023-07-31T06:52:10;99744.88;;;17.51;100.00
4085;BME280;2057;50.858;6.572;2023-07-31T06:54:36;99756.91;;;17.60;100.00
4085;BME280;2057;50.858;6.572;2023-07-31T06:57:01;99745.00;;;17.67;100.00
4085;BME280;2057;50.858;6.572;2023-07-31T06:59:27;99741.59;;;17.69;100.00
4085;BME280;2057;50.858;6.572;2023-07-31T07:01:52;99741.50;;;17.59;100.00
4085;BME280;2057;50.858;6.572;2023-07-31T07:04:18;99738.09;;;17.60;100.00
4085;BME280;2057;50.858;6.572;2023-07-31T07:06:43;99756.03;;;17.56;100.00
4085;BME280;2057;50.858;6.572;2023-07-31T07:09:08;99745.75;;;17.56;100.00
4085;BME280;2057;50.858;6.572;2023-07-31T07:11:34;99749.19;;;17.55;100.00
4085;BME280;2057;50.858;6.572;2023-07-31T07:13:59;99752.59;;;17.54;100.00
4085;BME280;2057;50.858;6.572;2023-07-31T07:16:25;99758.50;;;17.44;100.00
4085;BME280;2057;50.858;6.572;2023-07-31T07:18:51;99760.22;;;17.47;100.00
4085;BME280;2057;50.858;6.572;2023-07-31T07:21:16;99750.81;;;17.44;100.00
4085;BME280;2057;50.858;6.572;2023-07-31T07:23:43;99754.16;;;17.37;100.00
4085;BME280;2057;50.858;6.572;2023-07-31T07:26:08;99750.84;;;17.50;100.00
4085;BME280;2057;50.858;6.572;2023-07-31T07:28:33;99749.06;;;17.43;100.00
4085;BME280;2057;50.858;6.572;2023-07-31T07:30:59;99756.81;;;17.46;100.00
4085;BME280;2057;50.858;6.572;2023-07-31T07:33:24;99750.75;;;17.41;100.00
4085;BME280;2057;50.858;6.572;2023-07-31T07:35:49;99748.19;;;17.41;100.00
4085;BME280;2057;50.858;6.572;2023-07-31T07:38:15;99742.19;;;17.39;100.00
4085;BME280;2057;50.858;6.572;2023-07-31T07:40:40;99735.22;;;17.24;100.00
4085;BME280;2057;50.858;6.572;2023-07-31T07:43:06;99738.56;;;17.15;100.00
4085;BME280;2057;50.858;6.572;2023-07-31T07:45:31;99725.69;;;17.09;100.00
4085;BME280;2057;50.858;6.572;2023-07-31T07:47:57;99725.66;;;17.07;100.00
4085;BME280;2057;50.858;6.572;2023-07-31T07:50:23;99729.06;;;17.08;100.00
4085;BME280;2057;50.858;6.572;2023-07-31T07:52:48;99735.94;;;17.07;100.00
4085;BME280;2057;50.858;6.572;2023-07-31T07:55:13;99735.09;;;17.10;100.00
4085;BME280;2057;50.858;6.572;2023-07-31T07:57:39;99730.81;;;17.07;100.00
4085;BME280;2057;50.858;6.572;2023-07-31T08:00:05;99740.28;;;17.16;100.00
4085;BME280;2057;50.858;6.572;2023-07-31T08:02:31;99729.06;;;17.06;100.00
4085;BME280;2057;50.858;6.572;2023-07-31T08:04:56;99729.97;;;17.10;100.00
4085;BME280;2057;50.858;6.572;2023-07-31T08:07:21;99733.41;;;17.14;100.00
4085;BME280;2057;50.858;6.572;2023-07-31T08:09:47;99714.72;;;17.25;100.00
4085;BME280;2057;50.858;6.572;2023-07-31T08:12:12;99714.75;;;17.29;100.00
4085;BME280;2057;50.858;6.572;2023-07-31T08:14:37;99719.09;;;17.37;100.00
4085;BME280;2057;50.858;6.572;2023-07-31T08:17:03;99720.06;;;17.50;100.00
4085;BME280;2057;50.858;6.572;2023-07-31T08:19:28;99704.63;;;17.47;100.00
4085;BME280;2057;50.858;6.572;2023-07-31T08:21:54;99699.63;;;17.63;100.00
4085;BME280;2057;50.858;6.572;2023-07-31T08:24:20;99699.56;;;17.56;100.00
4085;BME280;2057;50.858;6.572;2023-07-31T08:26:45;99703.94;;;17.70;100.00
4085;BME280;2057;50.858;6.572;2023-07-31T08:29:10;99706.53;;;17.76;100.00
4085;BME280;2057;50.858;6.572;2023-07-31T08:31:36;99712.56;;;17.77;100.00
4085;BME280;2057;50.858;6.572;2023-07-31T08:34:01;99711.75;;;17.87;100.00
4085;BME280;2057;50.858;6.572;2023-07-31T08:36:26;99710.94;;;17.90;100.00
4085;BME280;2057;50.858;6.572;2023-07-31T08:38:52;99710.84;;;17.77;100.00
4085;BME280;2057;50.858;6.572;2023-07-31T08:41:18;99715.88;;;17.65;100.00
4085;BME280;2057;50.858;6.572;2023-07-31T08:43:45;99714.22;;;17.68;100.00
4085;BME280;2057;50.858;6.572;2023-07-31T08:46:11;99716.72;;;17.62;100.00
4085;BME280;2057;50.858;6.572;2023-07-31T08:48:37;99721.81;;;17.58;100.00
4085;BME280;2057;50.858;6.572;2023-07-31T08:51:14;99729.50;;;17.56;100.00
4085;BME280;2057;50.858;6.572;2023-07-31T08:53:39;99726.19;;;17.69;100.00
4085;BME280;2057;50.858;6.572;2023-07-31T08:56:06;99719.31;;;17.65;100.00
4085;BME280;2057;50.858;6.572;2023-07-31T08:58:34;99714.19;;;17.67;100.00
4085;BME280;2057;50.858;6.572;2023-07-31T09:01:02;99716.81;;;17.76;100.00
4085;BME280;2057;50.858;6.572;2023-07-31T09:03:33;99716.88;;;17.84;100.00
4085;BME280;2057;50.858;6.572;2023-07-31T09:05:59;99719.41;;;17.79;100.00
4085;BME280;2057;50.858;6.572;2023-07-31T09:08:26;99727.19;;;17.88;100.00
4085;BME280;2057;50.858;6.572;2023-07-31T09:10:59;99723.00;;;18.05;100.00
4085;BME280;2057;50.858;6.572;2023-07-31T09:13:24;99719.66;;;18.12;100.00
4085;BME280;2057;50.858;6.572;2023-07-31T09:15:50;99709.44;;;18.26;100.00
4085;BME280;2057;50.858;6.572;2023-07-31T09:18:15;99709.50;;;18.40;100.00
4085;BME280;2057;50.858;6.572;2023-07-31T09:20:44;99706.97;;;18.49;100.00
4085;BME280;2057;50.858;6.572;2023-07-31T09:23:11;99708.69;;;18.48;98.95
4085;BME280;2057;50.858;6.572;2023-07-31T09:25:38;99701.00;;;18.65;100.00
4085;BME280;2057;50.858;6.572;2023-07-31T09:30:30;99689.00;;;18.60;98.70
4085;BME280;2057;50.858;6.572;2023-07-31T09:33:04;99691.59;;;18.63;99.00
4085;BME280;2057;50.858;6.572;2023-07-31T09:35:34;99686.50;;;18.75;97.88
4085;BME280;2057;50.858;6.572;2023-07-31T09:38:03;99690.00;;;19.13;99.79
4085;BME280;2057;50.858;6.572;2023-07-31T09:40:31;99681.44;;;19.33;97.66
4085;BME280;2057;50.858;6.572;2023-07-31T09:43:01;99681.44;;;19.33;95.17
4085;BME280;2057;50.858;6.572;2023-07-31T09:45:28;99685.72;;;19.48;96.34
4085;BME280;2057;50.858;6.572;2023-07-31T09:47:56;99684.00;;;19.43;94.47
4085;BME280;2057;50.858;6.572;2023-07-31T09:50:23;99666.84;;;19.36;93.57
4085;BME280;2057;50.858;6.572;2023-07-31T09:52:50;99683.16;;;19.49;95.27
4085;BME280;2057;50.858;6.572;2023-07-31T09:55:15;99685.72;;;19.35;93.24
4085;BME280;2057;50.858;6.572;2023-07-31T09:57:44;99672.84;;;19.35;92.86
4085;BME280;2057;50.858;6.572;2023-07-31T10:00:10;99676.28;;;19.45;93.41
4085;BME280;2057;50.858;6.572;2023-07-31T10:02:37;99674.56;;;19.46;92.69
4085;BME280;2057;50.858;6.572;2023-07-31T10:05:04;99670.28;;;19.49;92.75
4085;BME280;2057;50.858;6.572;2023-07-31T10:07:37;99674.56;;;19.49;92.47
4085;BME280;2057;50.858;6.572;2023-07-31T10:10:08;99667.72;;;19.44;93.62
4085;BME280;2057;50.858;6.572;2023-07-31T10:12:37;99665.97;;;19.47;93.81
4085;BME280;2057;50.858;6.572;2023-07-31T10:15:03;99663.41;;;19.50;93.29
4085;BME280;2057;50.858;6.572;2023-07-31T10:17:37;99661.69;;;19.53;93.48
4085;BME280;2057;50.858;6.572;2023-07-31T10:20:03;99668.56;;;19.45;92.64
4085;BME280;2057;50.858;6.572;2023-07-31T10:22:31;99683.13;;;19.34;93.21
4085;BME280;2057;50.858;6.572;2023-07-31T10:25:00;99660.84;;;19.34;94.46
4085;BME280;2057;50.858;6.572;2023-07-31T10:27:26;99672.84;;;19.54;94.26
4085;BME280;2057;50.858;6.572;2023-07-31T10:29:54;99686.59;;;19.43;93.95
4085;BME280;2057;50.858;6.572;2023-07-31T10:32:20;99679.72;;;19.55;94.36
4085;BME280;2057;50.858;6.572;2023-07-31T10:34:50;99678.00;;;19.54;94.06
4085;BME280;2057;50.858;6.572;2023-07-31T10:37:27;99673.69;;;19.47;94.82
4085;BME280;2057;50.858;6.572;2023-07-31T10:40:04;99684.84;;;19.58;94.65
4085;BME280;2057;50.858;6.572;2023-07-31T10:42:30;99690.88;;;19.51;95.08
4085;BME280;2057;50.858;6.572;2023-07-31T10:44:57;99684.88;;;19.36;95.03
4085;BME280;2057;50.858;6.572;2023-07-31T10:47:23;99696.88;;;19.20;96.44
4085;BME280;2057;50.858;6.572;2023-07-31T10:49:49;99691.72;;;19.09;97.22
4085;BME280;2057;50.858;6.572;2023-07-31T10:52:19;99680.59;;;19.20;98.02
4085;BME280;2057;50.858;6.572;2023-07-31T10:54:49;99685.72;;;19.34;98.31
4085;BME280;2057;50.858;6.572;2023-07-31T10:57:21;99670.28;;;19.51;97.34
4085;BME280;2057;50.858;6.572;2023-07-31T10:59:50;99677.97;;;19.75;98.61
4085;BME280;2057;50.858;6.572;2023-07-31T11:02:27;99681.38;;;19.74;97.47
4085;BME280;2057;50.858;6.572;2023-07-31T11:05:09;99659.06;;;19.80;98.76
4085;BME280;2057;50.858;6.572;2023-07-31T11:07:50;99641.03;;;19.92;96.19
4085;BME280;2057;50.858;6.572;2023-07-31T11:10:17;99642.75;;;19.90;96.61
4085;BME280;2057;50.858;6.572;2023-07-31T11:12:42;99638.38;;;20.08;96.17
4085;BME280;2057;50.858;6.572;2023-07-31T11:15:08;99638.38;;;20.12;95.59
4085;BME280;2057;50.858;6.572;2023-07-31T11:17:38;99636.59;;;20.31;95.89
4085;BME280;2057;50.858;6.572;2023-07-31T11:20:04;99646.81;;;20.44;95.34
4085;BME280;2057;50.858;6.572;2023-07-31T11:22:30;99648.50;;;20.51;92.80
4085;BME280;2057;50.858;6.572;2023-07-31T11:24:56;99645.97;;;20.43;92.69
4085;BME280;2057;50.858;6.572;2023-07-31T11:27:21;99651.88;;;20.62;92.47
4085;BME280;2057;50.858;6.572;2023-07-31T11:29:46;99636.34;;;20.68;91.82
4085;BME280;2057;50.858;6.572;2023-07-31T11:32:22;99639.81;;;20.74;92.48
4085;BME280;2057;50.858;6.572;2023-07-31T11:34:54;99647.44;;;20.92;90.63
4085;BME280;2057;50.858;6.572;2023-07-31T11:37:20;99645.81;;;20.76;91.69
4085;BME280;2057;50.858;6.572;2023-07-31T11:40:00;99626.03;;;20.73;90.51
4085;BME280;2057;50.858;6.572;2023-07-31T11:42:26;99642.34;;;20.80;90.92
4085;BME280;2057;50.858;6.572;2023-07-31T11:44:51;99636.28;;;20.86;91.96
4085;BME280;2057;50.858;6.572;2023-07-31T11:47:17;99637.88;;;21.04;91.14
4085;BME280;2057;50.858;6.572;2023-07-31T11:49:43;99638.91;;;20.81;89.98
4085;BME280;2057;50.858;6.572;2023-07-31T11:52:09;99643.25;;;20.74;91.58
4085;BME280;2057;50.858;6.572;2023-07-31T11:54:36;99641.59;;;20.56;91.57
4085;BME280;2057;50.858;6.572;2023-07-31T11:57:02;99630.53;;;20.42;91.71
4085;BME280;2057;50.858;6.572;2023-07-31T11:59:27;99638.13;;;20.63;91.28
4085;BME280;2057;50.858;6.572;2023-07-31T12:01:53;99623.47;;;20.67;91.63
4085;BME280;2057;50.858;6.572;2023-07-31T12:04:19;99626.88;;;20.77;91.88
4085;BME280;2057;50.858;6.572;2023-07-31T12:06:47;99634.75;;;20.52;92.08
4085;BME280;2057;50.858;6.572;2023-07-31T12:09:15;99634.81;;;20.41;92.24
4085;BME280;2057;50.858;6.572;2023-07-31T12:11:44;99630.56;;;20.26;93.27
4085;BME280;2057;50.858;6.572;2023-07-31T12:14:24;99645.25;;;20.15;94.43
4085;BME280;2057;50.858;6.572;2023-07-31T12:17:03;99637.56;;;19.98;94.29
4085;BME280;2057;50.858;6.572;2023-07-31T12:19:29;99641.00;;;20.01;95.31
4085;BME280;2057;50.858;6.572;2023-07-31T12:21:59;99620.41;;;20.00;95.12
4085;BME280;2057;50.858;6.572;2023-07-31T12:24:26;99624.69;;;20.01;94.69
4085;BME280;2057;50.858;6.572;2023-07-31T12:26:51;99634.16;;;19.83;94.29
4085;BME280;2057;50.858;6.572;2023-07-31T12:29:20;99635.06;;;19.60;95.13
4085;BME280;2057;50.858;6.572;2023-07-31T12:31:45;99635.00;;;19.79;96.48
4085;BME280;2057;50.858;6.572;2023-07-31T12:34:18;99623.88;;;19.66;95.74
4085;BME280;2057;50.858;6.572;2023-07-31T12:36:44;99633.31;;;19.72;95.42
4085;BME280;2057;50.858;6.572;2023-07-31T12:39:09;99623.84;;;19.80;95.21
4085;BME280;2057;50.858;6.572;2023-07-31T12:41:35;99624.69;;;19.90;94.92
4085;BME280;2057;50.858;6.572;2023-07-31T12:44:00;99625.53;;;20.00;93.84
4085;BME280;2057;50.858;6.572;2023-07-31T12:46:26;99618.59;;;20.17;95.04
4085;BME280;2057;50.858;6.572;2023-07-31T12:48:51;99621.16;;;20.22;92.93
4085;BME280;2057;50.858;6.572;2023-07-31T12:51:16;99609.97;;;20.25;93.23
4085;BME280;2057;50.858;6.572;2023-07-31T12:53:44;99625.47;;;20.15;93.72
4085;BME280;2057;50.858;6.572;2023-07-31T12:56:10;99624.66;;;20.07;93.88
4085;BME280;2057;50.858;6.572;2023-07-31T12:58:35;99617.84;;;19.98;93.72
4085;BME280;2057;50.858;6.572;2023-07-31T13:01:00;99597.22;;;19.95;93.75
4085;BME280;2057;50.858;6.572;2023-07-31T13:03:27;99581.69;;;20.09;92.88
4085;BME280;2057;50.858;6.572;2023-07-31T13:05:52;99569.59;;;20.27;92.17
4085;BME280;2057;50.858;6.572;2023-07-31T13:08:17;99553.97;;;20.47;91.37
4085;BME280;2057;50.858;6.572;2023-07-31T13:10:43;99559.13;;;20.50;89.93
4085;BME280;2057;50.858;6.572;2023-07-31T13:13:09;99538.34;;;20.70;88.88
4085;BME280;2057;50.858;6.572;2023-07-31T13:15:35;99521.00;;;20.89;88.97
4085;BME280;2057;50.858;6.572;2023-07-31T13:18:00;99514.13;;;20.91;88.91
4085;BME280;2057;50.858;6.572;2023-07-31T13:20:25;99512.38;;;20.92;88.39
4085;BME280;2057;50.858;6.572;2023-07-31T13:22:51;99505.63;;;20.77;88.62